Randall, Iowa
Current Conditions -  °F | °C
As of 10:53 PM on Sunday 21 Dec 2014 (Local Time) from KAMW Reporting Station
Overcast Overcast  
Wind Chill: 33°   Ceiling: 1100
Heat Index: 41°   Visibility: 10mi
Dew Point: 38°   Wind: 14mph
Humidity: 89%   Direction: 160°SSE
Pressure: 29.75"   Gusts: NA
Location:  42.24°N, 93.6°W
Report Text: KAMW 220453Z AUTO 16012KT 10SM OVC011 05/03 A2975 RMK AO2 CIG 009V013 SLP076 T00500033
Loading
Personal Weather Stations






























Interactive Weather Map New forecast layout! Learn more

10-Day Weather Forecast

Advertisements
Track Severe Weather on mobile